Time;durP1;ratioP1;P1;durP2;ratioP2;P2;SDS_P1;SDS_P2;PMS_P1;PMS_P2;Temp;Humidity;BMP_temperature;BMP_pressure;BME280_temperature;BME280_humidity;BME280_pressure;Samples;Min_cycle;Max_cycle;Signal;HPM_P1;HPM_P2
2023/10/04 00:01:57;;;;;;;4.57;2.20;;;17.20;86.30;;;;;;7384966;19;20363;-79
2023/10/04 00:04:25;;;;;;;6.65;2.28;;;17.20;86.00;;;;;;7384016;19;20007;-79
2023/10/04 00:06:56;;;;;;;13.25;2.58;;;17.20;85.80;;;;;;7383307;19;20334;-78
2023/10/04 00:09:25;;;;;;;10.02;2.75;;;17.20;85.70;;;;;;7404424;19;20024;-79
2023/10/04 00:11:53;;;;;;;8.63;2.53;;;17.20;85.50;;;;;;7384730;19;20015;-78
2023/10/04 00:14:23;;;;;;;13.65;2.92;;;17.20;85.50;;;;;;7381353;19;20074;-78
2023/10/04 00:16:55;;;;;;;12.90;4.13;;;17.10;85.70;;;;;;7384912;19;20014;-79
2023/10/04 00:22:38;;;;;;;10.43;2.67;;;17.10;85.40;;;;;;7384816;19;20036;-79
2023/10/04 00:25:11;;;;;;;7.32;2.50;;;17.20;85.30;;;;;;7389671;19;20022;-80
2023/10/04 00:27:41;;;;;;;15.52;2.67;;;17.10;85.40;;;;;;7383226;19;20072;-80
2023/10/04 00:30:16;;;;;;;8.75;2.78;;;17.10;85.40;;;;;;7407661;19;20038;-79
2023/10/04 00:32:48;;;;;;;14.13;2.40;;;17.10;84.90;;;;;;7382672;19;20033;-80
2023/10/04 00:35:19;;;;;;;10.60;2.60;;;17.00;85.10;;;;;;7382088;19;20046;-79
2023/10/04 00:37:51;;;;;;;13.88;2.50;;;16.90;85.40;;;;;;7382732;19;20017;-78
2023/10/04 00:40:23;;;;;;;6.68;2.88;;;16.80;85.50;;;;;;7382094;19;20007;-79
2023/10/04 00:42:54;;;;;;;8.10;2.22;;;16.80;85.70;;;;;;7382894;19;20034;-79
2023/10/04 00:45:24;;;;;;;7.10;2.80;;;16.80;85.80;;;;;;7401869;19;20224;-79
2023/10/04 00:47:58;;;;;;;4.82;2.53;;;16.80;85.60;;;;;;7386366;19;20006;-79
2023/10/04 00:50:31;;;;;;;5.45;2.05;;;16.70;85.70;;;;;;7381736;19;20006;-79
2023/10/04 00:53:05;;;;;;;5.03;2.70;;;16.70;85.70;;;;;;7382238;19;20373;-79
2023/10/04 00:55:35;;;;;;;5.80;2.35;;;16.70;85.70;;;;;;7380736;19;20007;-80
2023/10/04 00:58:06;;;;;;;8.95;2.47;;;16.80;85.50;;;;;;7380637;19;20007;-78
2023/10/04 01:00:36;;;;;;;4.45;1.98;;;16.70;85.50;;;;;;7383782;19;20046;-79
2023/10/04 01:03:09;;;;;;;4.85;2.20;;;16.70;85.50;;;;;;7411327;19;20073;-78
2023/10/04 01:05:46;;;;;;;6.30;2.22;;;16.60;85.10;;;;;;7381449;19;20003;-78
2023/10/04 01:08:20;;;;;;;17.42;2.53;;;16.60;85.40;;;;;;7379947;19;20018;-77
2023/10/04 01:10:49;;;;;;;8.13;3.00;;;16.60;85.40;;;;;;7382103;19;20291;-78
2023/10/04 01:13:21;;;;;;;7.45;1.75;;;16.50;85.20;;;;;;7380623;19;20006;-78
2023/10/04 01:15:54;;;;;;;10.48;1.92;;;16.50;85.60;;;;;;7381218;19;20458;-78
2023/10/04 01:18:28;;;;;;;6.40;1.80;;;16.50;85.80;;;;;;7404529;19;20011;-78
2023/10/04 01:20:59;;;;;;;7.40;1.90;;;16.40;85.50;;;;;;7383402;19;20002;-79
2023/10/04 01:23:31;;;;;;;6.82;2.40;;;16.40;85.60;;;;;;7382347;19;20329;-78
2023/10/04 01:26:00;;;;;;;10.10;1.85;;;16.40;85.60;;;;;;7380739;19;20003;-77
2023/10/04 01:28:30;;;;;;;4.22;1.95;;;16.40;85.30;;;;;;7379050;19;20487;-78
2023/10/04 01:31:01;;;;;;;7.40;2.80;;;16.40;85.20;;;;;;7380242;19;20110;-78
2023/10/04 01:33:30;;;;;;;3.10;2.03;;;16.40;85.40;;;;;;7381969;19;20011;-78
2023/10/04 01:35:59;;;;;;;5.53;1.90;;;16.50;85.50;;;;;;7399546;19;20241;-78
2023/10/04 01:38:32;;;;;;;7.03;1.83;;;16.50;85.60;;;;;;7383449;19;20024;-78
2023/10/04 01:41:02;;;;;;;2.90;1.70;;;16.50;85.40;;;;;;7380375;19;20007;-78
2023/10/04 01:43:31;;;;;;;5.43;2.27;;;16.50;85.50;;;;;;7379367;19;20052;-78
2023/10/04 01:46:03;;;;;;;8.65;2.10;;;16.50;85.50;;;;;;7384077;19;20222;-78
2023/10/04 01:48:34;;;;;;;9.57;2.40;;;16.50;85.20;;;;;;7390303;19;20006;-78
2023/10/04 01:51:04;;;;;;;;;;;16.50;85.10;;;;;;7409831;19;20007;-78
2023/10/04 01:53:37;;;;;;;6.75;2.35;;;16.50;85.10;;;;;;7386627;19;19911;-78
2023/10/04 01:56:07;;;;;;;5.28;2.25;;;16.40;84.90;;;;;;7387171;19;20006;-78
2023/10/04 01:58:37;;;;;;;8.35;2.33;;;16.40;85.40;;;;;;7378864;19;20007;-78
2023/10/04 02:01:08;;;;;;;7.82;2.45;;;16.30;85.50;;;;;;7378364;19;20007;-78
2023/10/04 02:03:38;;;;;;;6.55;2.25;;;16.40;84.80;;;;;;7380752;19;20090;-78
2023/10/04 02:06:08;;;;;;;8.68;2.05;;;16.40;84.50;;;;;;7398994;19;20028;-78
2023/10/04 02:08:43;;;;;;;4.65;1.95;;;16.40;84.60;;;;;;7379282;19;20011;-80
2023/10/04 02:11:13;;;;;;;6.45;1.73;;;16.30;84.90;;;;;;7381067;19;20011;-79
2023/10/04 02:13:42;;;;;;;7.78;2.00;;;16.30;84.80;;;;;;7378651;19;20280;-80
2023/10/04 02:16:19;;;;;;;5.57;1.63;;;16.20;85.00;;;;;;7379202;19;20015;-80
2023/10/04 02:18:51;;;;;;;8.30;2.10;;;16.10;85.30;;;;;;7377895;19;20024;-79
2023/10/04 02:21:21;;;;;;;;;;;16.10;85.30;;;;;;7408609;19;20272;-78
2023/10/04 02:23:53;;;;;;;8.10;2.00;;;16.10;85.30;;;;;;7388957;19;20212;-78
2023/10/04 02:26:22;;;;;;;9.00;1.65;;;16.10;85.50;;;;;;7385483;19;20007;-79
2023/10/04 02:28:55;;;;;;;11.88;1.63;;;16.10;85.50;;;;;;7389470;19;20238;-79
2023/10/04 02:31:24;;;;;;;4.28;2.10;;;16.00;85.40;;;;;;7387576;19;20014;-79
2023/10/04 02:33:54;;;;;;;6.72;1.80;;;16.00;85.10;;;;;;7386963;19;20045;-80
2023/10/04 02:36:23;;;;;;;6.05;1.73;;;16.00;85.20;;;;;;7405925;19;20006;-79
2023/10/04 02:38:55;;;;;;;11.32;1.88;;;16.00;85.30;;;;;;7384872;19;20006;-79
2023/10/04 02:41:26;;;;;;;11.85;1.42;;;16.00;85.40;;;;;;7385960;19;20017;-79
2023/10/04 02:43:55;;;;;;;4.40;1.80;;;16.00;85.20;;;;;;7386631;19;20011;-79
2023/10/04 02:46:23;;;;;;;6.50;2.28;;;16.00;85.20;;;;;;7385386;19;20334;-77
2023/10/04 02:48:52;;;;;;;7.95;1.75;;;16.00;85.30;;;;;;7384117;19;20007;-78
2023/10/04 02:51:21;;;;;;;4.90;1.70;;;16.00;85.30;;;;;;7404554;19;20006;-78
2023/10/04 02:53:49;;;;;;;5.60;2.10;;;16.00;85.30;;;;;;7384217;19;20002;-78
2023/10/04 02:56:22;;;;;;;4.88;1.70;;;15.90;85.40;;;;;;7386166;19;20098;-78
2023/10/04 02:58:51;;;;;;;6.70;1.92;;;15.90;85.20;;;;;;7384418;19;20026;-79
2023/10/04 03:01:22;;;;;;;10.88;2.25;;;15.90;85.30;;;;;;7385897;19;20031;-77
2023/10/04 03:03:53;;;;;;;5.70;1.98;;;15.90;85.50;;;;;;7386424;19;20022;-78
2023/10/04 03:06:22;;;;;;;;;;;15.90;85.60;;;;;;7404312;19;20023;-78
2023/10/04 03:08:52;;;;;;;8.68;1.30;;;15.90;85.80;;;;;;7385084;19;20211;-78
2023/10/04 03:11:27;;;;;;;7.70;2.10;;;15.90;85.60;;;;;;7385632;19;20011;-79
2023/10/04 03:13:59;;;;;;;10.57;2.13;;;15.90;85.50;;;;;;7386023;19;20010;-79
2023/10/04 03:16:28;;;;;;;5.03;1.95;;;15.90;85.40;;;;;;7385288;19;20007;-77
2023/10/04 03:18:57;;;;;;;4.53;1.88;;;15.90;85.90;;;;;;7384823;19;20074;-78
2023/10/04 03:21:30;;;;;;;4.93;2.03;;;15.80;86.20;;;;;;7404257;19;20280;-79
2023/10/04 03:24:00;;;;;;;5.25;1.58;;;15.70;86.60;;;;;;7385890;19;20598;-78
2023/10/04 03:26:31;;;;;;;4.55;1.70;;;15.60;86.90;;;;;;7384646;19;20545;-78
2023/10/04 03:29:00;;;;;;;10.23;1.70;;;15.60;87.30;;;;;;7383624;19;20010;-78
2023/10/04 03:31:30;;;;;;;7.78;1.70;;;15.50;87.50;;;;;;7382759;19;20250;-79
2023/10/04 03:33:59;;;;;;;6.40;1.85;;;15.50;88.00;;;;;;7385112;19;20017;-79
2023/10/04 03:36:29;;;;;;;11.18;2.13;;;15.50;88.10;;;;;;7410379;19;20010;-77
2023/10/04 03:38:58;;;;;;;19.85;2.13;;;15.50;87.80;;;;;;7390936;19;20011;-78
2023/10/04 03:41:27;;;;;;;8.38;2.33;;;15.60;87.70;;;;;;7383351;19;20078;-78
2023/10/04 03:44:00;;;;;;;8.73;1.73;;;15.50;87.70;;;;;;7383985;19;20361;-79
2023/10/04 03:46:28;;;;;;;6.30;2.30;;;15.60;87.40;;;;;;7384790;19;20372;-79
2023/10/04 03:48:58;;;;;;;7.93;1.98;;;15.60;87.20;;;;;;7384106;19;20034;-78
2023/10/04 03:51:27;;;;;;;12.70;1.75;;;15.60;87.20;;;;;;7405607;19;20018;-78
2023/10/04 03:53:56;;;;;;;8.85;1.98;;;15.60;86.90;;;;;;7387815;19;20014;-79
2023/10/04 03:56:25;;;;;;;6.18;2.25;;;15.60;86.60;;;;;;7399536;19;20017;-80
2023/10/04 03:58:54;;;;;;;7.05;1.83;;;15.60;86.50;;;;;;7397600;19;20034;-79
2023/10/04 04:01:26;;;;;;;3.67;1.70;;;15.70;86.60;;;;;;7402362;19;20738;-78
2023/10/04 04:04:02;;;;;;;6.50;1.75;;;15.70;86.30;;;;;;7390772;19;20011;-78
2023/10/04 04:06:30;;;;;;;8.70;2.20;;;15.70;85.90;;;;;;7381481;19;20030;-78
2023/10/04 04:09:03;;;;;;;7.90;1.77;;;15.70;85.80;;;;;;7403138;19;20014;-79
2023/10/04 04:11:33;;;;;;;7.78;1.90;;;15.60;86.00;;;;;;7386669;19;20002;-80
2023/10/04 04:14:02;;;;;;;5.18;1.67;;;15.60;85.80;;;;;;7383810;19;20015;-79
2023/10/04 04:16:34;;;;;;;8.13;1.83;;;15.60;85.80;;;;;;7383313;19;20007;-80
2023/10/04 04:19:06;;;;;;;;;;;15.60;85.70;;;;;;7382642;19;20002;-79
2023/10/04 04:21:35;;;;;;;4.20;1.70;;;15.60;85.70;;;;;;7382153;19;20211;-78
2023/10/04 04:24:09;;;;;;;6.90;1.83;;;15.50;85.70;;;;;;7407675;19;20037;-78
2023/10/04 04:26:39;;;;;;;3.95;1.60;;;15.50;86.10;;;;;;7383995;19;20007;-79
2023/10/04 04:29:12;;;;;;;8.15;2.00;;;15.50;86.40;;;;;;7385951;19;20019;-79
2023/10/04 04:31:43;;;;;;;12.38;2.15;;;15.40;86.40;;;;;;7385761;19;20027;-79
2023/10/04 04:34:19;;;;;;;6.30;2.15;;;15.40;86.70;;;;;;7387766;19;20018;-78
2023/10/04 04:36:49;;;;;;;5.47;2.20;;;15.30;86.80;;;;;;7383812;19;20320;-76
2023/10/04 04:39:19;;;;;;;8.38;2.17;;;15.30;86.70;;;;;;7402251;19;20013;-76
2023/10/04 04:41:51;;;;;;;9.95;1.90;;;15.30;87.50;;;;;;7380714;19;20089;-76
2023/10/04 04:44:27;;;;;;;6.40;2.13;;;15.30;87.60;;;;;;7380282;19;20007;-76
2023/10/04 04:46:59;;;;;;;9.65;2.38;;;15.30;87.00;;;;;;7382081;19;20007;-79
2023/10/04 04:53:10;;;;;;;6.07;1.80;;;15.30;86.90;;;;;;7385420;19;20329;-82
2023/10/04 04:55:42;;;;;;;3.13;1.50;;;15.40;86.70;;;;;;7380910;19;20028;-78
2023/10/04 04:58:26;;;;;;;7.00;1.90;;;15.40;86.40;;;;;;7386388;19;20002;-85
2023/10/04 05:04:32;;;;;;;7.88;2.05;;;15.40;86.20;;;;;;7408106;19;20006;-86
2023/10/04 05:07:01;;;;;;;8.20;2.53;;;15.30;85.80;;;;;;7378640;19;20007;-78
2023/10/04 05:09:30;;;;;;;4.50;1.67;;;15.30;85.90;;;;;;7380916;19;20002;-79
2023/10/04 05:11:58;;;;;;;7.25;1.95;;;15.30;85.80;;;;;;7400818;19;20044;-80
2023/10/04 05:14:27;;;;;;;7.82;2.13;;;15.30;85.60;;;;;;7380201;19;20006;-78
2023/10/04 05:16:56;;;;;;;6.38;1.90;;;15.20;85.50;;;;;;7379729;19;20015;-78
2023/10/04 05:19:25;;;;;;;7.60;2.25;;;15.20;85.90;;;;;;7377067;19;20016;-78
2023/10/04 05:21:56;;;;;;;6.40;2.25;;;15.20;85.80;;;;;;7378409;19;20006;-79
2023/10/04 05:24:25;;;;;;;6.93;2.90;;;15.20;86.00;;;;;;7403302;19;20039;-79
2023/10/04 05:26:54;;;;;;;5.05;2.17;;;15.20;86.10;;;;;;7378487;19;20078;-81
2023/10/04 05:29:22;;;;;;;16.60;2.75;;;15.20;86.40;;;;;;7376995;19;20162;-79
2023/10/04 05:31:51;;;;;;;8.00;2.50;;;15.20;86.20;;;;;;7378350;19;20248;-80
2023/10/04 05:34:20;;;;;;;9.48;2.00;;;15.20;86.10;;;;;;7378161;19;20002;-80
2023/10/04 05:36:49;;;;;;;9.55;2.03;;;15.20;86.10;;;;;;7379648;19;20023;-79
2023/10/04 05:39:20;;;;;;;9.10;2.42;;;15.20;86.10;;;;;;7401362;19;20010;-79
2023/10/04 05:41:49;;;;;;;7.93;2.10;;;15.10;86.20;;;;;;7379810;19;20018;-78
2023/10/04 05:44:19;;;;;;;9.13;2.30;;;15.10;86.50;;;;;;7379212;19;20010;-79
2023/10/04 05:46:48;;;;;;;5.30;2.20;;;15.10;86.70;;;;;;7380671;19;20027;-80
2023/10/04 05:49:16;;;;;;;16.23;8.13;;;15.00;86.90;;;;;;7385431;19;20010;-80
2023/10/04 05:51:46;;;;;;;34.15;13.73;;;15.10;87.00;;;;;;7382535;19;20011;-80
2023/10/04 05:54:15;;;;;;;10.98;3.58;;;15.00;87.10;;;;;;7403717;19;20015;-80
2023/10/04 05:56:47;;;;;;;6.10;2.67;;;15.00;87.10;;;;;;7384687;19;20362;-79
2023/10/04 05:59:15;;;;;;;10.45;2.78;;;15.00;86.90;;;;;;7389687;19;20046;-79
2023/10/04 06:01:44;;;;;;;8.85;2.80;;;14.90;86.90;;;;;;7407471;19;20014;-80
2023/10/04 06:04:13;;;;;;;7.63;2.35;;;14.90;86.90;;;;;;7406391;19;20003;-80
2023/10/04 06:06:48;;;;;;;9.95;2.20;;;14.90;87.00;;;;;;7407569;19;20015;-79
2023/10/04 06:09:26;;;;;;;7.65;2.60;;;14.90;87.20;;;;;;7427750;19;20007;-80
2023/10/04 06:11:58;;;;;;;9.15;3.05;;;14.90;87.40;;;;;;7389610;19;20010;-78
2023/10/04 06:14:27;;;;;;;6.10;2.45;;;14.90;87.40;;;;;;7391042;19;20002;-78
2023/10/04 06:16:56;;;;;;;15.45;3.05;;;14.90;87.10;;;;;;7396676;19;20002;-80
2023/10/04 06:19:25;;;;;;;6.35;2.47;;;14.90;87.10;;;;;;7386083;19;20682;-80
2023/10/04 06:21:54;;;;;;;11.98;2.47;;;15.00;87.30;;;;;;7387908;19;20013;-78
2023/10/04 06:24:23;;;;;;;8.07;2.47;;;15.00;87.20;;;;;;7405287;19;20023;-78
2023/10/04 06:26:53;;;;;;;10.65;2.75;;;15.10;87.10;;;;;;7386496;19;20176;-79
2023/10/04 06:29:24;;;;;;;11.82;3.10;;;15.10;86.90;;;;;;7386437;19;20007;-80
2023/10/04 06:31:53;;;;;;;7.70;2.85;;;15.10;87.20;;;;;;7386106;19;20002;-79
2023/10/04 06:34:22;;;;;;;7.45;2.58;;;15.10;87.30;;;;;;7385633;19;20062;-79
2023/10/04 06:36:51;;;;;;;7.05;2.38;;;15.10;87.30;;;;;;7385771;19;20031;-79
2023/10/04 06:39:20;;;;;;;13.43;2.50;;;15.20;87.30;;;;;;7406913;19;20011;-81
2023/10/04 06:41:49;;;;;;;16.45;2.53;;;15.20;87.20;;;;;;7386684;19;20003;-80
2023/10/04 06:44:18;;;;;;;16.67;2.58;;;15.20;87.30;;;;;;7386769;19;20020;-79
2023/10/04 06:46:49;;;;;;;11.45;2.80;;;15.30;87.30;;;;;;7389803;19;20003;-80
2023/10/04 06:49:18;;;;;;;9.32;2.67;;;15.30;87.50;;;;;;7392494;19;20009;-78
2023/10/04 06:51:47;;;;;;;10.48;2.67;;;15.30;87.30;;;;;;7392010;19;20035;-81
2023/10/04 06:54:16;;;;;;;11.35;2.67;;;15.30;87.70;;;;;;7411804;19;20011;-79
2023/10/04 06:56:46;;;;;;;6.38;2.58;;;15.30;87.80;;;;;;7388536;19;20007;-79
2023/10/04 06:59:15;;;;;;;5.85;2.60;;;15.40;88.00;;;;;;7389360;19;20011;-79
2023/10/04 07:01:44;;;;;;;7.53;2.88;;;15.40;88.20;;;;;;7388494;19;20002;-79
2023/10/04 07:04:15;;;;;;;14.73;2.80;;;15.50;88.20;;;;;;7388340;19;20011;-78
2023/10/04 07:06:44;;;;;;;11.40;2.40;;;15.50;88.30;;;;;;7387423;19;20007;-79
2023/10/04 07:09:14;;;;;;;5.72;2.38;;;15.50;88.60;;;;;;7407450;19;20026;-78
2023/10/04 07:11:43;;;;;;;14.85;3.28;;;15.50;88.90;;;;;;7387735;19;20006;-79
2023/10/04 07:14:12;;;;;;;13.20;2.88;;;15.50;89.10;;;;;;7387655;19;20003;-79
2023/10/04 07:16:41;;;;;;;11.10;2.50;;;15.60;89.50;;;;;;7387015;19;20386;-79
2023/10/04 07:19:11;;;;;;;11.80;2.80;;;15.60;89.60;;;;;;7388283;19;20010;-77
2023/10/04 07:21:42;;;;;;;13.63;3.00;;;15.70;89.80;;;;;;7384646;19;20014;-79
2023/10/04 07:24:11;;;;;;;8.35;2.97;;;15.80;89.80;;;;;;7411690;19;20025;-80
2023/10/04 07:26:40;;;;;;;13.60;2.53;;;15.90;89.90;;;;;;7383650;19;20593;-79
2023/10/04 07:29:09;;;;;;;12.40;2.92;;;15.90;89.90;;;;;;7384520;19;20350;-78
2023/10/04 07:31:38;;;;;;;9.27;2.72;;;16.00;90.00;;;;;;7384671;19;20248;-78
2023/10/04 07:34:07;;;;;;;12.38;3.05;;;16.00;90.00;;;;;;7383622;19;20158;-78
2023/10/04 07:36:36;;;;;;;14.55;3.13;;;16.10;90.10;;;;;;7381987;19;20402;-79
2023/10/04 07:39:07;;;;;;;11.93;2.60;;;16.20;90.20;;;;;;7406323;19;20067;-78
2023/10/04 07:41:37;;;;;;;;;;;16.30;90.30;;;;;;7384469;19;20248;-78
2023/10/04 07:44:06;;;;;;;13.00;2.85;;;16.40;90.30;;;;;;7385227;19;19910;-78
2023/10/04 07:46:35;;;;;;;13.57;3.15;;;16.50;90.20;;;;;;7384578;19;20006;-78
2023/10/04 07:49:04;;;;;;;17.73;3.33;;;16.50;90.20;;;;;;7381551;19;20120;-77
2023/10/04 07:51:33;;;;;;;18.23;3.80;;;16.60;90.20;;;;;;7382542;19;20475;-78
2023/10/04 07:54:02;;;;;;;17.23;3.17;;;16.60;90.10;;;;;;7402629;19;20011;-77
2023/10/04 07:56:34;;;;;;;13.32;2.97;;;16.70;90.50;;;;;;7382716;19;20066;-78
2023/10/04 07:59:06;;;;;;;15.57;3.42;;;16.80;90.10;;;;;;7383829;19;20215;-78
2023/10/04 08:01:35;;;;;;;7.68;2.50;;;16.80;90.10;;;;;;7385064;19;20026;-79
2023/10/04 08:04:04;;;;;;;13.65;2.92;;;16.90;90.00;;;;;;7382094;19;20010;-78
2023/10/04 08:06:32;;;;;;;11.75;2.33;;;16.90;90.10;;;;;;7393606;19;20027;-78
2023/10/04 08:09:04;;;;;;;17.88;2.65;;;16.90;90.20;;;;;;7412550;19;20003;-78
2023/10/04 08:11:35;;;;;;;16.02;2.88;;;16.90;90.20;;;;;;7397076;19;20010;-78
2023/10/04 08:14:07;;;;;;;17.63;3.33;;;17.00;90.20;;;;;;7396157;19;20010;-79
2023/10/04 08:16:36;;;;;;;13.10;3.35;;;17.00;90.20;;;;;;7389025;19;20010;-78
2023/10/04 08:19:05;;;;;;;12.30;3.17;;;17.00;90.40;;;;;;7381738;19;20041;-78
2023/10/04 08:21:34;;;;;;;13.85;2.72;;;17.10;90.50;;;;;;7381094;19;19999;-78
2023/10/04 08:24:02;;;;;;;11.25;2.50;;;17.20;90.50;;;;;;7404197;19;20007;-78
2023/10/04 08:26:31;;;;;;;13.35;2.83;;;17.20;90.50;;;;;;7381555;19;20087;-78
2023/10/04 08:29:05;;;;;;;12.57;2.40;;;17.20;90.60;;;;;;7382506;19;20019;-77
2023/10/04 08:31:34;;;;;;;16.35;3.25;;;17.20;90.70;;;;;;7383597;19;20074;-77
2023/10/04 08:34:03;;;;;;;17.30;2.85;;;17.20;90.70;;;;;;7381948;19;20333;-78
2023/10/04 08:36:33;;;;;;;14.60;2.88;;;17.30;90.70;;;;;;7380539;19;20011;-77
2023/10/04 08:39:10;;;;;;;12.48;3.17;;;17.30;91.10;;;;;;7402844;19;20007;-77
2023/10/04 08:41:40;;;;;;;17.23;2.97;;;17.40;90.80;;;;;;7379193;19;20018;-77
2023/10/04 08:44:11;;;;;;;20.20;3.40;;;17.50;90.80;;;;;;7381477;19;19999;-78
2023/10/04 08:46:42;;;;;;;11.95;2.65;;;17.60;90.70;;;;;;7383010;19;20003;-78
2023/10/04 08:49:13;;;;;;;12.60;3.08;;;17.60;90.70;;;;;;7383253;19;20015;-79
2023/10/04 08:51:53;;;;;;;12.07;2.70;;;17.70;90.80;;;;;;7382794;19;20450;-79
2023/10/04 08:54:25;;;;;;;13.85;3.63;;;17.70;90.90;;;;;;7401883;19;20074;-78
2023/10/04 08:56:58;;;;;;;28.13;4.43;;;17.80;90.80;;;;;;7380849;19;20010;-78
2023/10/04 08:59:31;;;;;;;20.98;3.85;;;17.80;90.70;;;;;;7394294;19;20010;-78
2023/10/04 09:02:02;;;;;;;17.30;3.92;;;17.80;90.70;;;;;;7382269;19;20006;-77
2023/10/04 09:04:31;;;;;;;12.88;3.03;;;17.90;90.80;;;;;;7380528;19;20003;-77
2023/10/04 09:07:00;;;;;;;9.13;2.83;;;18.00;90.80;;;;;;7381380;19;20002;-77
2023/10/04 09:09:30;;;;;;;17.85;3.47;;;18.00;90.80;;;;;;7394315;19;20070;-77
2023/10/04 09:11:59;;;;;;;18.98;3.72;;;18.00;90.90;;;;;;7401890;19;20011;-77
2023/10/04 09:14:31;;;;;;;20.10;3.25;;;18.00;91.00;;;;;;7380518;19;20011;-77
2023/10/04 09:17:10;;;;;;;30.15;3.83;;;18.00;90.90;;;;;;7379263;19;20003;-78
2023/10/04 09:19:41;;;;;;;14.63;3.97;;;18.00;90.90;;;;;;7381309;19;20015;-78
2023/10/04 09:22:11;;;;;;;19.67;3.33;;;18.10;91.00;;;;;;7379612;19;20390;-77
2023/10/04 09:24:56;;;;;;;17.98;3.35;;;18.20;91.00;;;;;;7382219;19;20018;-78
2023/10/04 09:27:27;;;;;;;25.58;3.28;;;18.20;90.90;;;;;;7404370;19;20020;-78
2023/10/04 09:29:59;;;;;;;18.33;3.28;;;18.30;90.70;;;;;;7380690;19;20059;-78
2023/10/04 09:32:38;;;;;;;20.60;3.28;;;18.40;90.70;;;;;;7380295;19;20007;-77
2023/10/04 09:35:08;;;;;;;21.63;3.72;;;18.40;90.80;;;;;;7379665;19;20006;-78
2023/10/04 09:37:37;;;;;;;16.20;3.60;;;18.40;90.70;;;;;;7382156;19;20027;-77
2023/10/04 09:40:11;;;;;;;21.50;3.42;;;18.50;90.80;;;;;;7381687;19;20007;-78
2023/10/04 09:42:51;;;;;;;27.25;3.80;;;18.50;90.70;;;;;;7380447;19;20007;-79
2023/10/04 09:45:26;;;;;;;21.40;3.17;;;18.40;90.40;;;;;;7400444;19;20003;-78
2023/10/04 09:47:56;;;;;;;20.50;3.28;;;18.50;90.40;;;;;;7379140;19;20038;-78
2023/10/04 09:50:26;;;;;;;15.27;3.40;;;18.50;90.50;;;;;;7379242;19;20007;-78
2023/10/04 09:52:56;;;;;;;28.65;3.58;;;18.50;90.60;;;;;;7378941;19;20147;-78
2023/10/04 09:55:28;;;;;;;15.55;3.38;;;18.60;90.50;;;;;;7380690;19;20022;-79
2023/10/04 09:58:00;;;;;;;10.35;2.88;;;18.60;90.40;;;;;;7378688;19;20116;-78
2023/10/04 10:00:33;;;;;;;11.25;2.83;;;18.60;90.40;;;;;;7392183;19;20014;-77
2023/10/04 10:03:08;;;;;;;15.07;3.28;;;18.60;90.10;;;;;;7400140;19;20014;-78
2023/10/04 10:05:38;;;;;;;19.17;3.60;;;18.70;90.20;;;;;;7379166;19;20006;-78
2023/10/04 10:08:11;;;;;;;11.05;2.53;;;18.70;90.00;;;;;;7378100;19;20023;-78
2023/10/04 10:10:41;;;;;;;22.70;3.03;;;18.70;89.90;;;;;;7379251;19;20020;-78
2023/10/04 10:13:11;;;;;;;21.10;3.27;;;18.70;90.00;;;;;;7381121;19;20010;-81
2023/10/04 10:15:43;;;;;;;20.90;3.35;;;18.80;90.10;;;;;;7385697;19;20002;-79
2023/10/04 10:18:13;;;;;;;;;;;18.80;90.40;;;;;;7407795;19;20011;-78
2023/10/04 10:20:42;;;;;;;13.30;3.20;;;18.90;90.00;;;;;;7390985;19;19915;-79
2023/10/04 10:23:17;;;;;;;17.98;3.25;;;18.90;89.40;;;;;;7383409;19;20014;-79
2023/10/04 10:26:16;;;;;;;16.17;3.63;;;19.00;89.70;;;;;;7379631;19;20010;-77
2023/10/04 10:28:47;;;;;;;18.30;3.67;;;19.00;89.80;;;;;;7377666;19;20019;-78
2023/10/04 10:31:23;;;;;;;18.30;3.33;;;19.00;89.20;;;;;;7379288;19;20007;-77
2023/10/04 10:33:52;;;;;;;12.80;3.53;;;19.00;86.50;;;;;;7379480;19;20011;-78
2023/10/04 10:36:25;;;;;;;15.55;2.80;;;19.00;86.10;;;;;;7399074;19;20007;-78
2023/10/04 10:38:54;;;;;;;16.92;3.47;;;19.00;86.50;;;;;;7378057;19;20007;-78
2023/10/04 10:41:53;;;;;;;18.48;3.53;;;19.00;86.60;;;;;;7382790;19;20002;-79
2023/10/04 10:44:24;;;;;;;23.77;2.85;;;19.10;86.60;;;;;;7384956;19;20062;-79
2023/10/04 10:46:58;;;;;;;;;;;19.10;86.70;;;;;;7387558;19;20007;-78
2023/10/04 10:49:51;;;;;;;14.07;2.15;;;19.10;86.90;;;;;;7386262;19;19910;-78
2023/10/04 10:52:26;;;;;;;16.20;2.85;;;19.20;86.60;;;;;;7387808;19;20264;-79
2023/10/04 10:54:55;;;;;;;13.70;2.42;;;19.20;85.80;;;;;;7384756;19;20018;-77
2023/10/04 10:57:25;;;;;;;19.88;3.20;;;19.30;85.20;;;;;;7407048;19;20026;-77
2023/10/04 10:59:56;;;;;;;14.80;2.33;;;19.20;85.10;;;;;;7386853;19;20002;-78
2023/10/04 11:02:28;;;;;;;19.23;3.08;;;19.20;85.20;;;;;;7384998;19;20019;-79
2023/10/04 11:04:57;;;;;;;18.00;4.63;;;19.20;85.50;;;;;;7385193;19;20020;-77
2023/10/04 11:07:26;;;;;;;17.35;3.30;;;19.20;85.80;;;;;;7385859;19;20014;-78
2023/10/04 11:09:58;;;;;;;21.25;2.85;;;19.20;85.40;;;;;;7385526;19;20205;-78
2023/10/04 11:12:27;;;;;;;12.70;3.70;;;19.20;84.20;;;;;;7408519;19;20015;-77
2023/10/04 11:14:56;;;;;;;17.25;3.40;;;19.30;84.40;;;;;;7386422;19;20011;-79
2023/10/04 11:17:30;;;;;;;8.32;2.60;;;19.30;84.70;;;;;;7390371;19;20014;-80
2023/10/04 11:19:59;;;;;;;24.00;4.05;;;19.30;85.10;;;;;;7388720;19;20029;-79
2023/10/04 11:22:28;;;;;;;15.77;2.83;;;19.40;84.20;;;;;;7388115;19;20015;-79
2023/10/04 11:24:57;;;;;;;12.43;2.63;;;19.40;83.40;;;;;;7390131;19;20014;-79
2023/10/04 11:27:27;;;;;;;14.52;2.58;;;19.40;83.00;;;;;;7409560;19;20011;-78
2023/10/04 11:29:56;;;;;;;9.25;2.60;;;19.20;81.20;;;;;;7387712;19;20007;-78
2023/10/04 11:32:30;;;;;;;12.85;2.70;;;19.20;81.80;;;;;;7385890;19;20006;-80
2023/10/04 11:35:07;;;;;;;17.00;2.53;;;19.30;82.40;;;;;;7387544;19;20034;-78
2023/10/04 11:37:40;;;;;;;13.93;2.60;;;19.30;80.70;;;;;;7386665;19;20011;-78
2023/10/04 11:40:12;;;;;;;27.85;2.90;;;19.30;80.80;;;;;;7389109;19;20010;-78
2023/10/04 11:42:41;;;;;;;9.60;2.60;;;19.30;80.70;;;;;;7389281;19;20020;-78
2023/10/04 11:45:20;;;;;;;13.00;2.72;;;19.20;81.20;;;;;;7408097;19;20007;-79
2023/10/04 11:48:05;;;;;;;13.02;2.58;;;19.30;81.90;;;;;;7386057;19;20027;-78
2023/10/04 11:50:46;;;;;;;12.90;2.38;;;19.30;81.90;;;;;;7386062;19;20246;-79
2023/10/04 11:53:15;;;;;;;13.73;2.53;;;19.30;81.60;;;;;;7386020;19;20007;-77
2023/10/04 11:55:44;;;;;;;8.48;2.33;;;19.40;81.20;;;;;;7386966;19;20011;-78
2023/10/04 11:58:13;;;;;;;14.90;2.50;;;19.20;79.70;;;;;;7385933;19;20006;-78
2023/10/04 12:00:42;;;;;;;9.35;2.67;;;19.10;80.50;;;;;;7386116;19;20006;-79
2023/10/04 12:03:13;;;;;;;16.48;2.65;;;19.20;79.60;;;;;;7407404;19;20282;-79
2023/10/04 12:05:42;;;;;;;6.85;2.00;;;19.20;79.00;;;;;;7384738;19;20016;-78
2023/10/04 12:08:11;;;;;;;20.60;2.42;;;19.30;79.30;;;;;;7383176;19;20006;-80
2023/10/04 12:10:40;;;;;;;16.98;2.50;;;19.30;79.30;;;;;;7384056;19;20020;-79
2023/10/04 12:13:08;;;;;;;15.82;2.90;;;19.20;78.60;;;;;;7384181;19;20011;-79
2023/10/04 12:15:39;;;;;;;7.75;2.58;;;19.30;79.10;;;;;;7382201;19;20092;-80
2023/10/04 12:18:09;;;;;;;9.10;2.77;;;19.40;79.10;;;;;;7411456;19;20027;-79
2023/10/04 12:20:41;;;;;;;9.57;2.63;;;19.50;79.50;;;;;;7403116;19;20335;-79
2023/10/04 12:23:10;;;;;;;16.45;2.80;;;19.60;78.20;;;;;;7402742;19;20006;-78
2023/10/04 12:25:42;;;;;;;19.33;3.10;;;19.60;78.70;;;;;;7395441;19;20003;-78
2023/10/04 12:28:12;;;;;;;14.02;2.78;;;19.70;78.60;;;;;;7385903;19;20011;-78
2023/10/04 12:30:41;;;;;;;14.88;2.60;;;19.70;79.20;;;;;;7385237;19;20215;-78
2023/10/04 12:33:12;;;;;;;15.00;2.50;;;19.70;79.10;;;;;;7404802;19;20037;-78
2023/10/04 12:35:44;;;;;;;17.80;2.83;;;19.80;79.40;;;;;;7383580;19;20046;-79
2023/10/04 12:38:13;;;;;;;14.27;2.75;;;20.00;79.40;;;;;;7383391;19;20063;-79
2023/10/04 12:40:42;;;;;;;13.93;2.67;;;20.10;78.20;;;;;;7385201;19;20016;-79
2023/10/04 12:43:11;;;;;;;7.85;2.30;;;20.10;77.60;;;;;;7382629;19;20405;-79
2023/10/04 12:45:40;;;;;;;17.20;3.47;;;20.20;77.20;;;;;;7385062;19;20011;-79
2023/10/04 12:48:13;;;;;;;10.45;3.03;;;20.30;76.40;;;;;;7405425;19;20022;-79
2023/10/04 12:50:48;;;;;;;10.10;2.80;;;20.30;76.30;;;;;;7383305;19;20003;-79
2023/10/04 12:53:17;;;;;;;17.05;3.35;;;20.30;76.40;;;;;;7381645;19;20018;-78
2023/10/04 12:55:47;;;;;;;10.90;3.03;;;20.30;77.40;;;;;;7383230;19;20023;-78
2023/10/04 12:58:18;;;;;;;14.57;3.03;;;20.20;77.00;;;;;;7384378;19;20011;-78
2023/10/04 13:00:46;;;;;;;12.38;3.47;;;20.20;77.90;;;;;;7383117;19;20026;-78
2023/10/04 13:03:15;;;;;;;9.82;3.00;;;20.20;78.20;;;;;;7404463;19;20027;-79
2023/10/04 13:05:47;;;;;;;13.30;2.88;;;20.20;78.30;;;;;;7382989;19;20066;-76
2023/10/04 13:08:16;;;;;;;12.00;3.03;;;20.20;78.10;;;;;;7382167;19;20003;-78
2023/10/04 13:10:45;;;;;;;15.85;3.20;;;20.20;77.00;;;;;;7382527;19;20011;-78
2023/10/04 13:13:14;;;;;;;11.73;3.03;;;20.10;76.60;;;;;;7382203;19;20007;-79